Time;durP1;ratioP1;P1;durP2;ratioP2;P2;SDS_P1;SDS_P2;PMS_P1;PMS_P2;Temp;Humidity;BMP_temperature;BMP_pressure;BME280_temperature;BME280_humidity;BME280_pressure;Samples;Min_cycle;Max_cycle;Signal;HPM_P1;HPM_P2
2022/11/15 00:02:22;;;;;;;2.70;1.50;;;7.90;89.60;;;;;;6244947;22;20007;-71
2022/11/15 00:04:47;;;;;;;2.92;1.65;;;7.90;89.70;;;;;;6244234;22;20008;-71
2022/11/15 00:07:13;;;;;;;2.33;1.40;;;7.90;89.70;;;;;;6242900;23;20044;-71
2022/11/15 00:09:38;;;;;;;3.08;1.40;;;8.00;89.80;;;;;;6244672;22;20042;-71
2022/11/15 00:12:04;;;;;;;2.70;1.25;;;8.00;89.80;;;;;;6243461;23;20008;-71
2022/11/15 00:14:30;;;;;;;2.30;1.00;;;7.90;89.80;;;;;;6240031;23;20452;-71
2022/11/15 00:16:55;;;;;;;2.17;1.23;;;8.00;89.90;;;;;;6244750;22;20008;-72
2022/11/15 00:19:21;;;;;;;2.60;1.30;;;8.00;89.90;;;;;;6244302;22;20011;-72
2022/11/15 00:21:46;;;;;;;2.40;1.20;;;8.00;90.00;;;;;;6244119;23;20008;-71
2022/11/15 00:24:12;;;;;;;1.63;1.00;;;8.10;90.00;;;;;;6244849;22;20034;-72
2022/11/15 00:26:38;;;;;;;2.20;1.20;;;8.00;90.00;;;;;;6244830;22;20044;-71
2022/11/15 00:29:03;;;;;;;2.15;1.10;;;8.00;90.00;;;;;;6243269;23;20016;-71
2022/11/15 00:31:29;;;;;;;2.88;1.30;;;8.00;90.00;;;;;;6244619;22;20061;-71
2022/11/15 00:33:54;;;;;;;2.00;1.17;;;8.10;90.00;;;;;;6243898;22;20011;-72
2022/11/15 00:36:20;;;;;;;2.70;1.25;;;8.10;90.00;;;;;;6242518;23;20008;-71
2022/11/15 00:38:45;;;;;;;1.00;0.80;;;8.10;90.00;;;;;;6244278;22;20024;-72
2022/11/15 00:41:11;;;;;;;1.83;0.90;;;8.10;90.10;;;;;;6244170;22;20043;-72
2022/11/15 00:43:37;;;;;;;2.08;1.10;;;8.10;90.10;;;;;;6242498;23;20004;-71
2022/11/15 00:46:02;;;;;;;1.88;1.00;;;8.10;90.10;;;;;;6242237;23;20087;-72
2022/11/15 00:48:28;;;;;;;1.67;0.98;;;8.10;90.10;;;;;;6244068;22;20024;-72
2022/11/15 00:50:54;;;;;;;1.77;1.00;;;8.10;90.10;;;;;;6242166;23;20012;-72
2022/11/15 00:53:19;;;;;;;1.95;1.00;;;8.10;90.10;;;;;;6243813;22;20034;-72
2022/11/15 00:55:46;;;;;;;1.58;0.90;;;8.10;90.10;;;;;;6242305;23;20333;-72
2022/11/15 00:58:12;;;;;;;2.28;1.13;;;8.10;90.20;;;;;;6243748;22;20063;-71
2022/11/15 01:00:37;;;;;;;2.58;1.50;;;8.10;90.20;;;;;;6243696;22;20012;-71
2022/11/15 01:03:03;;;;;;;1.20;0.98;;;8.20;90.20;;;;;;6243646;22;20373;-72
2022/11/15 01:05:28;;;;;;;1.02;0.82;;;8.20;90.20;;;;;;6243753;22;20042;-72
2022/11/15 01:07:55;;;;;;;1.83;1.10;;;8.10;90.20;;;;;;6243612;22;20058;-72
2022/11/15 01:10:23;;;;;;;1.42;1.02;;;8.20;90.20;;;;;;6242028;23;20444;-72
2022/11/15 01:12:49;;;;;;;1.60;1.20;;;8.30;90.30;;;;;;6244050;22;20015;-72
2022/11/15 01:15:15;;;;;;;2.13;1.00;;;8.20;90.20;;;;;;6244268;22;20008;-72
2022/11/15 01:17:40;;;;;;;2.25;1.20;;;8.20;90.20;;;;;;6244218;23;20392;-72
2022/11/15 01:20:07;;;;;;;1.13;0.90;;;8.20;90.30;;;;;;6243641;22;20011;-72
2022/11/15 01:22:32;;;;;;;1.40;1.00;;;8.20;90.30;;;;;;6217171;23;20024;-72
2022/11/15 01:24:58;;;;;;;1.38;0.90;;;8.20;90.60;;;;;;6243436;22;20096;-71
2022/11/15 01:27:24;;;;;;;1.77;1.00;;;8.20;90.30;;;;;;6216868;23;20074;-72
2022/11/15 01:29:49;;;;;;;1.83;0.98;;;8.30;90.30;;;;;;6243961;22;20088;-72
2022/11/15 01:32:16;;;;;;;1.40;1.02;;;8.30;90.30;;;;;;6243473;22;20011;-72
2022/11/15 01:34:42;;;;;;;2.20;1.20;;;8.30;90.30;;;;;;6242066;23;20008;-72
2022/11/15 01:37:07;;;;;;;0.95;0.70;;;8.30;90.30;;;;;;6216898;23;20028;-72
2022/11/15 01:39:33;;;;;;;1.55;1.10;;;8.30;90.60;;;;;;6243609;22;20432;-72
2022/11/15 01:41:59;;;;;;;1.15;0.90;;;8.40;90.30;;;;;;6243460;22;20028;-72
2022/11/15 01:44:46;;;;;;;1.83;1.02;;;8.40;90.30;;;;;;6243379;23;20335;-72
2022/11/15 01:47:17;;;;;;;1.77;1.05;;;8.30;90.30;;;;;;6242124;23;20000;-72
2022/11/15 01:49:56;;;;;;;1.30;0.95;;;8.40;90.30;;;;;;6244122;22;20136;-72
2022/11/15 01:52:25;;;;;;;1.30;0.90;;;8.40;90.30;;;;;;6243597;22;20009;-72
2022/11/15 01:54:58;;;;;;;1.48;0.90;;;8.40;90.30;;;;;;6216445;23;20058;-72
2022/11/15 01:57:23;;;;;;;1.10;0.77;;;8.60;90.40;;;;;;6243953;22;20012;-72
2022/11/15 01:59:49;;;;;;;0.80;0.77;;;8.40;90.30;;;;;;6244684;22;20014;-72
2022/11/15 02:02:15;;;;;;;1.20;0.90;;;8.50;90.30;;;;;;6245485;22;20011;-72
2022/11/15 02:04:44;;;;;;;0.85;0.75;;;8.60;90.30;;;;;;6218065;23;20053;-72
2022/11/15 02:07:13;;;;;;;1.42;0.88;;;8.60;90.30;;;;;;6243352;23;20008;-72
2022/11/15 02:09:39;;;;;;;1.40;0.90;;;8.60;90.30;;;;;;6245406;22;20015;-72
2022/11/15 02:12:08;;;;;;;1.38;0.80;;;8.60;90.30;;;;;;6245545;22;20038;-72
2022/11/15 02:14:35;;;;;;;1.58;0.90;;;8.70;90.30;;;;;;6243486;23;20372;-72
2022/11/15 02:17:33;;;;;;;0.85;0.70;;;8.70;90.30;;;;;;6243256;23;20439;-72
2022/11/15 02:20:25;;;;;;;1.42;1.00;;;8.70;90.30;;;;;;6243822;23;20059;-71
2022/11/15 02:23:31;;;;;;;0.70;0.70;;;8.80;90.30;;;;;;6244553;22;20095;-71
2022/11/15 02:26:16;;;;;;;1.33;0.90;;;8.80;90.30;;;;;;6243469;23;20075;-72
2022/11/15 02:29:13;;;;;;;0.93;0.73;;;8.90;90.30;;;;;;6244627;22;20012;-72
2022/11/15 02:31:57;;;;;;;1.00;0.80;;;8.90;90.30;;;;;;6244572;22;20016;-72
2022/11/15 02:34:48;;;;;;;1.38;0.82;;;8.90;90.30;;;;;;6243074;23;20008;-72
2022/11/15 02:37:35;;;;;;;1.75;1.00;;;9.00;90.30;;;;;;6243608;23;20004;-72
2022/11/15 02:40:23;;;;;;;0.95;0.82;;;9.00;90.30;;;;;;6243370;23;20005;-72
2022/11/15 02:45:37;;;;;;;1.42;0.98;;;9.00;90.20;;;;;;6244439;23;20027;-71
2022/11/15 02:48:04;;;;;;;1.42;0.88;;;9.10;90.30;;;;;;6243143;23;20015;-72
2022/11/15 02:50:31;;;;;;;1.23;0.80;;;9.10;90.30;;;;;;6244524;22;20390;-72
2022/11/15 02:52:57;;;;;;;1.67;0.90;;;9.10;90.30;;;;;;6242935;23;20341;-72
2022/11/15 02:55:39;;;;;;;1.20;0.75;;;9.10;90.30;;;;;;6244583;22;20014;-72
2022/11/15 02:58:42;;;;;;;0.75;0.65;;;9.20;90.30;;;;;;6242750;23;20015;-72
2022/11/15 03:01:32;;;;;;;1.73;1.00;;;9.20;90.30;;;;;;6243372;23;20066;-72
2022/11/15 03:04:17;;;;;;;1.63;0.98;;;9.30;90.30;;;;;;6220856;23;20016;-72
2022/11/15 03:06:52;;;;;;;1.83;1.10;;;9.30;90.30;;;;;;6244466;22;20395;-72
2022/11/15 03:09:42;;;;;;;1.50;0.80;;;9.40;90.30;;;;;;6193783;23;20035;-72
2022/11/15 03:12:16;;;;;;;1.05;0.90;;;9.40;90.30;;;;;;6244480;22;20008;-72
2022/11/15 03:14:56;;;;;;;2.25;1.30;;;9.60;90.30;;;;;;6244589;22;20034;-72
2022/11/15 03:17:31;;;;;;;1.52;1.00;;;9.50;90.20;;;;;;6245061;22;20035;-72
2022/11/15 03:20:01;;;;;;;1.65;1.35;;;9.60;90.20;;;;;;6243081;23;20008;-72
2022/11/15 03:22:29;;;;;;;1.63;1.08;;;9.70;90.20;;;;;;6244780;22;20068;-72
2022/11/15 03:24:59;;;;;;;2.35;1.50;;;9.70;90.30;;;;;;6244740;22;20015;-72
2022/11/15 03:27:31;;;;;;;2.55;1.50;;;9.70;90.20;;;;;;6244322;22;20035;-72
2022/11/15 03:30:01;;;;;;;2.40;1.30;;;9.80;90.20;;;;;;6244098;22;20463;-72
2022/11/15 03:32:30;;;;;;;1.67;1.15;;;9.80;90.20;;;;;;6244659;22;20008;-72
2022/11/15 03:35:01;;;;;;;1.90;1.40;;;9.80;90.20;;;;;;6244884;22;20312;-72
2022/11/15 03:37:35;;;;;;;1.75;1.40;;;9.90;90.20;;;;;;6244261;22;20070;-72
2022/11/15 03:40:03;;;;;;;2.17;1.25;;;10.00;90.20;;;;;;6244161;22;20444;-72
2022/11/15 03:42:50;;;;;;;1.90;1.42;;;9.90;90.20;;;;;;6244430;22;20012;-72
2022/11/15 03:45:28;;;;;;;2.45;1.60;;;10.00;90.20;;;;;;6243889;22;20020;-72
2022/11/15 03:48:16;;;;;;;2.80;1.52;;;10.00;90.20;;;;;;6243060;23;20015;-72
2022/11/15 03:50:43;;;;;;;2.45;1.65;;;10.10;90.20;;;;;;6244406;22;20023;-72
2022/11/15 03:53:09;;;;;;;2.78;1.50;;;10.20;90.20;;;;;;6244231;22;20428;-72
2022/11/15 03:55:34;;;;;;;3.55;2.00;;;10.20;90.20;;;;;;6242687;23;20008;-72
2022/11/15 03:58:01;;;;;;;3.67;2.15;;;10.30;90.20;;;;;;6243295;23;20091;-72
2022/11/15 04:00:27;;;;;;;3.30;1.85;;;10.30;90.20;;;;;;6243283;23;20030;-71
2022/11/15 04:02:53;;;;;;;3.50;1.90;;;10.40;90.10;;;;;;6242516;23;20022;-72
2022/11/15 04:05:19;;;;;;;3.60;2.00;;;10.40;90.10;;;;;;6242964;23;20054;-72
2022/11/15 04:07:44;;;;;;;3.30;1.98;;;10.40;90.20;;;;;;6244085;22;20011;-72
2022/11/15 04:10:11;;;;;;;2.92;1.90;;;10.40;90.20;;;;;;6242432;23;20451;-72
2022/11/15 04:12:42;;;;;;;3.88;2.20;;;10.40;90.50;;;;;;6244792;22;20000;-72
2022/11/15 04:15:10;;;;;;;3.63;2.20;;;10.50;90.20;;;;;;6244154;22;20506;-72
2022/11/15 04:17:41;;;;;;;3.75;2.00;;;10.50;90.20;;;;;;6244110;22;20277;-72
2022/11/15 04:25:38;;;;;;;2.55;1.60;;;10.60;90.30;;;;;;6244077;22;20095;-72
2022/11/15 04:28:04;;;;;;;3.78;1.65;;;10.60;90.30;;;;;;6242214;23;20032;-72
2022/11/15 04:30:29;;;;;;;2.60;1.52;;;10.60;90.30;;;;;;6244235;22;20092;-72
2022/11/15 04:32:55;;;;;;;2.85;1.75;;;10.60;90.30;;;;;;6244535;22;20154;-71
2022/11/15 04:35:20;;;;;;;3.47;2.08;;;10.80;90.40;;;;;;6242302;23;20479;-72
2022/11/15 04:37:46;;;;;;;2.85;1.55;;;10.70;90.40;;;;;;6243879;22;20015;-72
2022/11/15 04:40:12;;;;;;;3.13;1.98;;;10.70;90.40;;;;;;6244327;22;20345;-71
2022/11/15 04:42:37;;;;;;;4.32;2.08;;;10.80;90.40;;;;;;6242378;23;20012;-72
2022/11/15 04:45:03;;;;;;;2.78;1.77;;;10.70;90.40;;;;;;6242401;23;20039;-72
2022/11/15 04:47:29;;;;;;;3.35;2.00;;;10.80;90.40;;;;;;6243987;22;20065;-71
2022/11/15 04:49:55;;;;;;;3.42;1.92;;;10.90;90.40;;;;;;6244498;22;20008;-72
2022/11/15 04:52:20;;;;;;;3.17;1.77;;;10.90;90.40;;;;;;6242571;23;20099;-72
2022/11/15 04:54:46;;;;;;;2.53;1.60;;;10.90;90.50;;;;;;6242429;23;20004;-71
2022/11/15 04:57:11;;;;;;;2.80;1.73;;;10.90;90.50;;;;;;6242491;23;20054;-72
2022/11/15 04:59:37;;;;;;;2.42;1.52;;;10.90;90.50;;;;;;6243858;22;21141;-72
2022/11/15 05:02:03;;;;;;;2.95;1.92;;;10.90;90.50;;;;;;6243929;22;20016;-72
2022/11/15 05:04:28;;;;;;;3.15;1.70;;;10.90;90.50;;;;;;6217274;23;20333;-72
2022/11/15 05:06:54;;;;;;;2.33;1.45;;;11.00;90.50;;;;;;6244022;22;20015;-72
2022/11/15 05:09:20;;;;;;;3.17;1.75;;;10.90;90.60;;;;;;6244100;22;20318;-72
2022/11/15 05:11:46;;;;;;;2.90;1.80;;;10.90;90.60;;;;;;6244175;22;20008;-72
2022/11/15 05:14:12;;;;;;;3.22;1.90;;;11.00;90.60;;;;;;6244397;22;20011;-72
2022/11/15 05:16:38;;;;;;;3.97;1.88;;;11.00;90.60;;;;;;6244044;22;20012;-72
2022/11/15 05:19:05;;;;;;;2.97;1.73;;;11.00;90.60;;;;;;6244059;22;20012;-72
2022/11/15 05:21:31;;;;;;;2.63;1.58;;;11.10;90.60;;;;;;6244121;22;20012;-72
2022/11/15 05:23:57;;;;;;;3.80;2.00;;;11.00;90.60;;;;;;6217138;23;20458;-72
2022/11/15 05:26:23;;;;;;;3.33;1.73;;;11.10;90.60;;;;;;6242443;23;20431;-72
2022/11/15 05:28:54;;;;;;;4.15;2.10;;;11.10;90.70;;;;;;6244106;22;20009;-72
2022/11/15 05:31:20;;;;;;;2.65;1.80;;;11.10;90.70;;;;;;6243981;22;20013;-71
2022/11/15 05:33:45;;;;;;;2.90;1.85;;;11.20;90.70;;;;;;6244924;22;20039;-72
2022/11/15 05:36:20;;;;;;;3.78;2.10;;;11.20;90.70;;;;;;6243922;23;20012;-71
2022/11/15 05:38:46;;;;;;;3.50;1.80;;;11.20;90.70;;;;;;6245215;22;20008;-72
2022/11/15 05:41:14;;;;;;;2.83;1.80;;;11.20;90.70;;;;;;6244450;23;20061;-72
2022/11/15 05:43:41;;;;;;;3.50;1.80;;;11.20;90.70;;;;;;6245650;22;20129;-72
2022/11/15 05:46:06;;;;;;;2.88;1.80;;;11.20;90.70;;;;;;6245373;22;20083;-71
2022/11/15 05:48:35;;;;;;;3.08;1.77;;;11.20;90.70;;;;;;6245281;22;20008;-71
2022/11/15 05:51:03;;;;;;;4.18;1.77;;;11.20;90.80;;;;;;6245158;22;20012;-72
2022/11/15 05:53:30;;;;;;;3.40;1.77;;;11.20;90.80;;;;;;6245217;23;20015;-72
2022/11/15 05:55:56;;;;;;;3.95;1.92;;;11.20;90.80;;;;;;6245153;22;20004;-71
2022/11/15 05:58:21;;;;;;;2.60;1.65;;;11.20;90.80;;;;;;6245313;22;20008;-71
2022/11/15 06:00:48;;;;;;;2.83;1.80;;;11.20;90.80;;;;;;6243500;23;20016;-71
2022/11/15 06:03:14;;;;;;;3.38;1.52;;;11.20;90.90;;;;;;6243836;23;20004;-72
2022/11/15 06:05:40;;;;;;;2.50;1.40;;;11.20;90.90;;;;;;6245365;23;20091;-71
2022/11/15 06:08:05;;;;;;;2.72;1.70;;;11.20;90.90;;;;;;6245422;22;20008;-71
2022/11/15 06:10:32;;;;;;;3.70;2.00;;;11.20;90.90;;;;;;6245402;22;20019;-71
2022/11/15 06:13:00;;;;;;;3.33;1.90;;;11.30;91.00;;;;;;6243987;23;20432;-72
2022/11/15 06:15:26;;;;;;;2.13;1.50;;;11.30;91.00;;;;;;6245344;22;20095;-71
2022/11/15 06:17:51;;;;;;;2.42;1.50;;;11.30;91.00;;;;;;6243581;23;20432;-72
2022/11/15 06:20:17;;;;;;;2.17;1.30;;;11.30;91.00;;;;;;6245469;22;20074;-72
2022/11/15 06:22:43;;;;;;;2.08;1.30;;;11.20;91.00;;;;;;6245470;22;20059;-72
2022/11/15 06:25:09;;;;;;;1.95;1.30;;;11.20;91.00;;;;;;6245587;22;20015;-72
2022/11/15 06:27:34;;;;;;;1.45;1.25;;;11.30;91.10;;;;;;6245109;22;20035;-72
2022/11/15 06:30:00;;;;;;;2.22;1.45;;;11.20;91.10;;;;;;6245369;22;20433;-71
2022/11/15 06:32:26;;;;;;;2.33;1.15;;;11.20;91.10;;;;;;6245185;22;20004;-72
2022/11/15 06:34:51;;;;;;;1.70;1.20;;;11.20;91.10;;;;;;6243528;23;20091;-72
2022/11/15 06:37:17;;;;;;;1.55;1.13;;;11.30;91.10;;;;;;6243447;23;20012;-72
2022/11/15 06:39:43;;;;;;;2.53;1.48;;;11.30;91.40;;;;;;6244997;22;20062;-73
2022/11/15 06:42:09;;;;;;;2.75;1.45;;;11.30;91.20;;;;;;6245166;22;20012;-72
2022/11/15 06:44:34;;;;;;;1.98;1.10;;;11.20;91.20;;;;;;6245526;22;20010;-72
2022/11/15 06:47:00;;;;;;;1.85;1.30;;;11.30;91.20;;;;;;6244338;23;20372;-72
2022/11/15 06:49:25;;;;;;;2.00;1.30;;;11.20;91.20;;;;;;6245158;22;20333;-72
2022/11/15 06:51:51;;;;;;;2.53;1.30;;;11.20;91.20;;;;;;6244964;22;20012;-71
2022/11/15 06:54:17;;;;;;;1.73;1.17;;;11.20;91.20;;;;;;6245524;22;20004;-71
2022/11/15 06:56:42;;;;;;;1.38;1.10;;;11.20;91.20;;;;;;6245685;22;20004;-72
2022/11/15 06:59:08;;;;;;;1.67;1.00;;;11.20;91.20;;;;;;6243414;23;20005;-72
2022/11/15 07:01:33;;;;;;;1.50;1.10;;;11.20;91.20;;;;;;6245008;22;20023;-71
2022/11/15 07:03:59;;;;;;;1.67;1.10;;;11.20;91.30;;;;;;6245135;22;20398;-71
2022/11/15 07:06:25;;;;;;;1.23;1.00;;;11.20;91.30;;;;;;6245530;22;20007;-72
2022/11/15 07:08:50;;;;;;;1.75;1.00;;;11.20;91.30;;;;;;6243158;23;20023;-72
2022/11/15 07:11:16;;;;;;;1.23;0.95;;;11.20;91.40;;;;;;6244748;22;20444;-72
2022/11/15 07:13:42;;;;;;;1.50;1.00;;;11.20;91.40;;;;;;6243442;23;20065;-71
2022/11/15 07:16:09;;;;;;;1.20;1.05;;;11.20;91.40;;;;;;6245081;22;20000;-73
2022/11/15 07:18:36;;;;;;;1.30;1.00;;;11.20;91.40;;;;;;6243554;23;20014;-71
2022/11/15 07:21:04;;;;;;;1.95;1.30;;;11.20;91.40;;;;;;6243881;23;20016;-74
2022/11/15 07:23:30;;;;;;;1.75;1.15;;;11.20;91.40;;;;;;6244236;23;20038;-74
2022/11/15 07:25:58;;;;;;;2.42;1.48;;;11.20;91.40;;;;;;6243599;23;20487;-74
2022/11/15 07:28:24;;;;;;;1.60;1.27;;;11.20;91.40;;;;;;6244211;23;20087;-74
2022/11/15 07:30:50;;;;;;;2.50;1.45;;;11.20;91.30;;;;;;6243933;23;20035;-74
2022/11/15 07:33:16;;;;;;;2.08;1.40;;;11.30;91.40;;;;;;6245886;22;20417;-73
2022/11/15 07:35:42;;;;;;;1.88;1.33;;;11.30;91.40;;;;;;6245658;22;20296;-74
2022/11/15 07:38:08;;;;;;;1.63;1.20;;;11.30;91.40;;;;;;6243849;23;21248;-74
2022/11/15 07:40:34;;;;;;;2.13;1.30;;;11.30;91.40;;;;;;6245581;23;20061;-73
2022/11/15 07:43:02;;;;;;;1.63;1.10;;;11.30;91.40;;;;;;6240111;23;20062;-73
2022/11/15 07:45:28;;;;;;;2.35;1.35;;;11.30;91.40;;;;;;6243500;23;20031;-73
2022/11/15 07:47:55;;;;;;;1.98;1.25;;;11.30;91.40;;;;;;6243304;23;20042;-73
2022/11/15 07:50:23;;;;;;;2.10;1.20;;;11.30;91.40;;;;;;6244662;22;20012;-74
2022/11/15 07:52:55;;;;;;;1.88;1.10;;;11.30;91.40;;;;;;6248639;23;20058;-75
2022/11/15 07:55:21;;;;;;;2.10;1.13;;;11.30;91.40;;;;;;6239897;23;20008;-76
2022/11/15 07:57:46;;;;;;;1.70;1.10;;;11.30;91.40;;;;;;6243782;23;20012;-75
2022/11/15 08:00:18;;;;;;;1.83;1.27;;;11.40;91.40;;;;;;6244353;22;20073;-75
2022/11/15 08:02:43;;;;;;;;;;;11.30;91.70;;;;;;6216901;23;20012;-76
2022/11/15 08:05:12;;;;;;;2.15;1.10;;;11.30;91.40;;;;;;6242054;23;20015;-76
2022/11/15 08:07:38;;;;;;;2.13;1.20;;;11.30;91.40;;;;;;6216717;23;20042;-75
2022/11/15 08:10:09;;;;;;;1.52;1.20;;;11.30;91.40;;;;;;6242386;23;20488;-76
2022/11/15 08:12:37;;;;;;;1.30;1.10;;;11.40;91.40;;;;;;6216946;23;20089;-75
2022/11/15 08:15:02;;;;;;;1.25;1.05;;;11.40;91.40;;;;;;6167488;23;20349;-75
2022/11/15 08:17:32;;;;;;;1.83;1.25;;;11.40;91.40;;;;;;6216964;23;20008;-75
2022/11/15 08:19:58;;;;;;;1.48;1.00;;;11.40;91.40;;;;;;6242120;23;20012;-75
2022/11/15 08:22:24;;;;;;;1.40;0.90;;;11.40;91.40;;;;;;6242546;23;20506;-75
2022/11/15 08:24:49;;;;;;;1.55;1.02;;;11.40;91.40;;;;;;6242838;23;20014;-75
2022/11/15 08:27:21;;;;;;;1.45;0.93;;;11.40;91.40;;;;;;6243859;23;20095;-75
2022/11/15 08:29:48;;;;;;;;;;;11.50;91.50;;;;;;6242998;23;20453;-75
2022/11/15 08:32:17;;;;;;;0.88;0.70;;;11.40;91.40;;;;;;6238047;23;19912;-75
2022/11/15 08:34:43;;;;;;;2.00;1.02;;;11.40;91.50;;;;;;6243838;23;20012;-75
2022/11/15 08:37:08;;;;;;;0.70;0.70;;;11.50;91.50;;;;;;6217741;23;20403;-75
2022/11/15 08:39:34;;;;;;;1.58;1.08;;;11.40;91.50;;;;;;6242971;23;20023;-75
2022/11/15 08:42:00;;;;;;;1.25;1.00;;;11.60;91.50;;;;;;6240443;23;20099;-76
2022/11/15 08:44:26;;;;;;;2.00;1.02;;;11.50;91.50;;;;;;6244395;22;20463;-76
2022/11/15 08:46:52;;;;;;;1.42;1.00;;;11.60;91.50;;;;;;6242846;23;20079;-76
2022/11/15 08:49:26;;;;;;;2.08;1.13;;;11.60;91.50;;;;;;6244914;22;20417;-76
2022/11/15 08:51:59;;;;;;;1.27;0.90;;;11.60;91.50;;;;;;6242256;23;20023;-76
2022/11/15 08:54:25;;;;;;;1.55;1.02;;;11.60;91.50;;;;;;6192282;23;20281;-75
2022/11/15 08:56:51;;;;;;;2.10;1.42;;;11.70;91.40;;;;;;6192769;23;20022;-75
2022/11/15 08:59:17;;;;;;;3.03;1.63;;;11.70;91.50;;;;;;6192385;23;20008;-74
2022/11/15 09:01:42;;;;;;;2.78;1.70;;;11.70;91.40;;;;;;6192511;23;20012;-74
2022/11/15 09:04:08;;;;;;;4.18;2.08;;;11.80;91.40;;;;;;6192743;23;20373;-75
2022/11/15 09:06:34;;;;;;;3.13;1.80;;;11.80;91.30;;;;;;6192812;23;20012;-74
2022/11/15 09:09:01;;;;;;;2.72;1.80;;;11.80;91.30;;;;;;6221368;23;20019;-76
2022/11/15 09:11:27;;;;;;;2.22;1.60;;;11.80;91.30;;;;;;6195451;23;20379;-75
2022/11/15 09:13:53;;;;;;;3.97;1.73;;;11.80;91.40;;;;;;6193759;23;20020;-75
2022/11/15 09:16:19;;;;;;;2.63;1.40;;;11.80;91.30;;;;;;6193533;23;20459;-75
2022/11/15 09:18:45;;;;;;;2.40;1.48;;;11.90;91.40;;;;;;6193408;23;20004;-75
2022/11/15 09:21:11;;;;;;;2.28;1.40;;;11.80;91.40;;;;;;6193286;23;20016;-75
2022/11/15 09:23:37;;;;;;;1.80;1.30;;;11.90;91.40;;;;;;6216794;23;20016;-76
2022/11/15 09:26:05;;;;;;;1.98;1.40;;;11.80;91.40;;;;;;6216707;23;20016;-76
2022/11/15 09:28:32;;;;;;;2.22;1.42;;;11.70;91.40;;;;;;6242199;23;20440;-76
2022/11/15 09:30:59;;;;;;;1.50;1.00;;;11.70;91.40;;;;;;6216993;23;20012;-74
2022/11/15 09:33:26;;;;;;;1.85;1.27;;;11.80;91.70;;;;;;6216910;23;20008;-74
2022/11/15 09:35:53;;;;;;;1.67;1.20;;;11.90;91.40;;;;;;6216929;23;20008;-75
2022/11/15 09:38:20;;;;;;;1.80;1.25;;;11.80;91.40;;;;;;6217478;23;20452;-75
2022/11/15 09:40:51;;;;;;;1.45;1.08;;;11.80;91.40;;;;;;6217203;23;20012;-75
2022/11/15 09:43:36;;;;;;;1.30;1.08;;;11.90;91.50;;;;;;6216750;23;20090;-75
2022/11/15 09:46:35;;;;;;;1.75;1.00;;;12.00;91.50;;;;;;6219826;23;20012;-75
2022/11/15 09:49:02;;;;;;;0.95;0.80;;;11.90;91.40;;;;;;6219480;23;20051;-74
2022/11/15 09:51:34;;;;;;;1.15;0.90;;;12.00;91.40;;;;;;6217787;23;20036;-75
2022/11/15 09:54:08;;;;;;;1.52;1.20;;;12.00;91.40;;;;;;6215793;23;20019;-75
2022/11/15 09:56:38;;;;;;;1.35;0.88;;;12.00;91.40;;;;;;6195988;23;20050;-75
2022/11/15 09:59:33;;;;;;;1.95;1.10;;;12.00;91.30;;;;;;6193921;23;20008;-74
2022/11/15 10:02:32;;;;;;;1.00;0.90;;;12.10;91.30;;;;;;6244136;23;20012;-75
2022/11/15 10:04:59;;;;;;;1.08;0.95;;;12.20;91.20;;;;;;6243345;23;20035;-75
2022/11/15 10:07:48;;;;;;;1.20;0.90;;;12.30;91.20;;;;;;6219229;23;20008;-75
2022/11/15 10:10:29;;;;;;;1.38;1.08;;;12.20;91.20;;;;;;6221501;23;20016;-75
2022/11/15 10:12:55;;;;;;;;;;;12.30;91.20;;;;;;6222182;23;20012;-75
2022/11/15 10:15:22;;;;;;;1.30;0.90;;;12.30;91.10;;;;;;6217969;23;19907;-75
2022/11/15 10:18:08;;;;;;;1.00;0.95;;;12.40;91.10;;;;;;6193543;23;20012;-75
2022/11/15 10:20:51;;;;;;;1.40;1.10;;;12.30;91.00;;;;;;6193804;23;20016;-74
2022/11/15 10:23:20;;;;;;;2.88;1.40;;;12.30;91.00;;;;;;6195413;23;20016;-75
2022/11/15 10:25:46;;;;;;;1.50;1.23;;;12.40;91.00;;;;;;6194142;23;20091;-74
2022/11/15 10:28:21;;;;;;;2.17;1.60;;;12.30;91.00;;;;;;6195132;23;20027;-76
2022/11/15 10:30:50;;;;;;;1.90;1.40;;;12.20;91.00;;;;;;6218023;23;20340;-75
2022/11/15 10:33:34;;;;;;;1.65;1.30;;;12.10;91.00;;;;;;6218683;23;20019;-75
2022/11/15 10:36:17;;;;;;;2.30;1.30;;;12.20;91.10;;;;;;6193309;23;20012;-76
2022/11/15 10:38:54;;;;;;;2.72;1.05;;;12.20;91.00;;;;;;6217760;23;20143;-75
2022/11/15 10:41:38;;;;;;;2.45;1.00;;;12.20;91.00;;;;;;6193394;23;20042;-75
2022/11/15 10:44:19;;;;;;;1.73;0.95;;;12.20;91.00;;;;;;6218334;23;20016;-75
2022/11/15 10:46:50;;;;;;;1.10;0.90;;;12.20;90.90;;;;;;6195263;23;20012;-76
2022/11/15 10:49:19;;;;;;;;;;;12.30;90.90;;;;;;6194463;23;20023;-75
2022/11/15 10:51:52;;;;;;;1.67;1.00;;;12.30;90.90;;;;;;6218092;23;19918;-76
2022/11/15 10:54:33;;;;;;;1.10;1.00;;;12.20;90.80;;;;;;6193834;23;20456;-75
2022/11/15 10:57:06;;;;;;;0.80;0.80;;;12.30;90.80;;;;;;6194204;23;20014;-75
2022/11/15 10:59:33;;;;;;;1.40;0.80;;;12.30;90.80;;;;;;6193693;23;20039;-76
2022/11/15 11:02:00;;;;;;;0.90;0.90;;;12.30;90.80;;;;;;6193145;23;20013;-77
2022/11/15 11:04:32;;;;;;;1.10;1.00;;;12.20;90.80;;;;;;6193262;23;20012;-73
2022/11/15 11:07:00;;;;;;;1.50;0.90;;;12.30;90.70;;;;;;6195053;23;20104;-73
2022/11/15 11:09:39;;;;;;;1.73;0.80;;;12.30;90.60;;;;;;6218411;23;20016;-75
2022/11/15 11:12:09;;;;;;;0.70;0.70;;;12.20;90.60;;;;;;6245536;22;20318;-74
2022/11/15 11:14:39;;;;;;;0.50;0.50;;;12.10;90.60;;;;;;6243361;23;20403;-73
2022/11/15 11:17:21;;;;;;;0.80;0.70;;;12.30;90.60;;;;;;6245624;22;20016;-75
2022/11/15 11:19:53;;;;;;;;;;;12.20;90.50;;;;;;6245485;22;20341;-76
2022/11/15 11:22:46;;;;;;;0.63;0.57;;;12.20;90.50;;;;;;6245319;22;19907;-74
2022/11/15 11:25:25;;;;;;;0.65;0.52;;;12.20;90.40;;;;;;6242905;23;20019;-75
2022/11/15 11:28:05;;;;;;;1.05;0.60;;;12.20;90.40;;;;;;6246182;22;20133;-76
2022/11/15 11:30:50;;;;;;;1.70;0.57;;;12.20;90.30;;;;;;6245271;23;20008;-75
2022/11/15 11:33:21;;;;;;;0.50;0.50;;;12.30;90.30;;;;;;6244841;22;20004;-74
2022/11/15 11:36:19;;;;;;;1.00;0.63;;;12.30;90.20;;;;;;6245251;22;20073;-74
2022/11/15 11:39:03;;;;;;;0.40;0.40;;;12.30;90.10;;;;;;6248453;23;20011;-77
2022/11/15 11:41:56;;;;;;;0.70;0.50;;;12.30;90.10;;;;;;6246441;23;20012;-77
2022/11/15 11:44:41;;;;;;;1.00;0.80;;;12.30;90.00;;;;;;6245482;22;20151;-77
2022/11/15 11:47:27;;;;;;;0.52;0.52;;;12.30;89.70;;;;;;6217998;23;20012;-75
2022/11/15 11:50:00;;;;;;;1.00;0.68;;;12.40;89.50;;;;;;6244973;22;20008;-76
2022/11/15 11:52:38;;;;;;;0.55;0.55;;;12.50;89.30;;;;;;6242572;23;20020;-76
2022/11/15 11:55:16;;;;;;;0.73;0.63;;;12.50;88.90;;;;;;6242411;23;20050;-77
2022/11/15 11:58:04;;;;;;;1.38;0.60;;;12.50;88.70;;;;;;6242008;23;20012;-76
2022/11/15 12:00:34;;;;;;;1.52;0.60;;;12.60;88.70;;;;;;6218844;23;20011;-75
2022/11/15 12:03:12;;;;;;;0.75;0.32;;;12.70;88.60;;;;;;6191648;23;20375;-75
2022/11/15 12:05:43;;;;;;;1.25;0.60;;;12.70;88.40;;;;;;6226457;23;20016;-76
2022/11/15 12:08:33;;;;;;;0.30;0.30;;;12.70;88.40;;;;;;6219453;23;20012;-76
2022/11/15 12:11:20;;;;;;;0.47;0.43;;;12.70;88.40;;;;;;6225633;23;20016;-76
2022/11/15 12:13:53;;;;;;;0.20;0.20;;;12.80;88.30;;;;;;6251033;23;20038;-76
2022/11/15 12:16:27;;;;;;;0.30;0.30;;;12.80;88.20;;;;;;6219827;23;20008;-75
2022/11/15 12:18:55;;;;;;;0.55;0.30;;;12.80;88.10;;;;;;6242261;23;20020;-76
2022/11/15 12:21:41;;;;;;;0.13;0.13;;;12.80;88.00;;;;;;6217462;23;20012;-75
2022/11/15 12:24:27;;;;;;;0.17;0.17;;;12.80;88.10;;;;;;6244420;23;20015;-74
2022/11/15 12:27:11;;;;;;;0.20;0.20;;;12.80;88.00;;;;;;6243490;23;20012;-74
2022/11/15 12:29:40;;;;;;;0.20;0.20;;;12.80;88.00;;;;;;6244715;22;20016;-74
2022/11/15 12:32:21;;;;;;;0.30;0.30;;;12.90;87.90;;;;;;6244214;22;20015;-75
2022/11/15 12:34:49;;;;;;;0.30;0.30;;;12.80;87.80;;;;;;6244441;22;20036;-75
2022/11/15 12:37:33;;;;;;;0.25;0.25;;;12.90;87.70;;;;;;6244593;22;20004;-74
2022/11/15 12:40:29;;;;;;;0.20;0.20;;;12.90;87.70;;;;;;6247511;22;20012;-75
2022/11/15 12:43:32;;;;;;;0.20;0.20;;;12.90;87.60;;;;;;6248205;22;20008;-74
2022/11/15 12:46:04;;;;;;;0.75;0.20;;;12.90;87.50;;;;;;6243291;23;20008;-76
2022/11/15 12:48:48;;;;;;;0.43;0.20;;;12.90;87.40;;;;;;6246701;22;20012;-75
2022/11/15 12:51:42;;;;;;;0.20;0.20;;;13.00;87.30;;;;;;6247220;23;20038;-76
2022/11/15 12:54:43;;;;;;;0.20;0.20;;;13.10;87.20;;;;;;6242936;23;20016;-76
2022/11/15 12:57:32;;;;;;;0.20;0.20;;;13.10;87.10;;;;;;6244823;23;20052;-76
2022/11/15 13:00:06;;;;;;;0.20;0.20;;;13.10;86.90;;;;;;6244136;22;20011;-76
2022/11/15 13:02:40;;;;;;;0.52;0.20;;;13.10;86.90;;;;;;6253102;23;20044;-76
2022/11/15 13:05:45;;;;;;;0.10;0.10;;;13.10;87.50;;;;;;6244617;22;20004;-76
2022/11/15 13:08:36;;;;;;;0.57;0.20;;;13.10;87.50;;;;;;6214835;23;20470;-76
2022/11/15 13:11:35;;;;;;;0.20;0.20;;;13.10;86.90;;;;;;6243921;23;20016;-75
2022/11/15 13:14:24;;;;;;;0.15;0.15;;;13.10;86.90;;;;;;6243955;22;20035;-76
2022/11/15 13:24:03;;;;;;;0.10;0.10;;;13.00;87.00;;;;;;6062323;23;20090;-74
2022/11/15 13:26:36;;;;;;;0.52;0.20;;;12.90;87.10;;;;;;6075847;23;20166;-76
2022/11/15 13:29:02;;;;;;;0.65;0.30;;;12.90;86.90;;;;;;6076936;23;20390;-76